Knight Air

Knight Air knights of the virtual airways



 METAR AND TAF INFORMATION
METAR FOR EGJJ
ADDS - METARS form results

(0848 UTC 24 May 2019)
Data provider http://aviationweather.gov/metar/data/
 
METAR text: EGJJ 240820Z 32010KT 280V350 9999 FEW012 14/11 Q1019
Conditions at: EGJJ (JERSEY AIRPORT , GB) observed 0820 UTC 24 May 2019
Temperature: 14.0°C (57°F)
Dewpoint: 11.0°C (52°F) [RH = 82%]
Pressure (altimeter): 30.09 inches Hg (1019.0 mb)
Winds: from the NW (320 degrees) at 12 MPH (10 knots; 5.1 m/s)
Visibility: 6 or more miles (10+ km)
Ceiling: at least 12,000 feet AGL
Clouds: few clouds at 1200 feet AGL
Weather: no significant weather observed at this time

METAR text: EGJJ 240750Z 32009KT 280V360 9999 FEW012 14/11 Q1019
Conditions at: EGJJ (JERSEY AIRPORT , GB) observed 0750 UTC 24 May 2019
Temperature: 14.0°C (57°F)
Dewpoint: 11.0°C (52°F) [RH = 82%]
Pressure (altimeter): 30.09 inches Hg (1019.0 mb)
Winds: from the NW (320 degrees) at 10 MPH (9 knots; 4.6 m/s)
Visibility: 6 or more miles (10+ km)
Ceiling: at least 12,000 feet AGL
Clouds: few clouds at 1200 feet AGL
Weather: no significant weather observed at this time

Forecast for: EGJJ (JERSEY AIRPORT , GB)
Text: TAF EGJJ 240800Z 2409/2418 30010KT 9999 FEW012 SCT048
Forecast period: 0900 to 1800 UTC 24 May 2019
Forecast type: FROM: standard forecast or significant change
Winds: from the WNW (300 degrees) at 12 MPH (10 knots; 5.1 m/s)
Visibility: 6 or more miles 10+ km)
Ceiling: at least 12,000 feet AGL
Clouds: few clouds at 1200 feet AGL
scattered clouds at 4800 feet AGL
Weather: no significant weather forecast for this period
Text: PROB30
Forecast period: 0900 to 1800 UTC 24 May 2019
Forecast type: TEMPORARY: The following changes expected for less than half the time period
Visibility: 2.49 miles (4.01 km)
Ceiling: 400 feet AGL
Clouds: broken clouds at 400 feet AGL
Weather: BR  (mist)

 AIRPORT MAP

 RUNWAY INFORMATION
Runway 09 Runway length 5597 ft Runway width 151 ft
Runway elevation 270 ft Runway displaced threshold 200 ft Runway heading 83
Runway 27 Runway length 5597 ft Runway width 151 ft
Runway elevation 271 ft Runway displaced threshold 299 ft Runway heading 263

 AIRPORT FREQUENCIES
Type APP Name APP Frequency 120.3 MHZ
Type ATIS Name INFO Frequency 112.2 MHZ
Type GND Name GND Frequency 121.9 MHZ
Type RDR Name RDR Frequency 118.55 MHZ
Type TWR Name TWR Frequency 119.45 MHZ

 AIRPORT NEAR NAVIGATION AIDS
Type VOR-DME Name Jersey Frequency 112200 KHZ